Città:
 IT 
 EN 
 FR 
 DE 
 ES 

Dati meteo attuali Milano

Datameteo.com - Informazione e servizi avanzati per la meteorologia,la nautica e la protezione civile
Milano / Linate, Italy
Alba: 4:39 AM UTC1
Tramonto: 8:13 PM UTC1
 Lat: 45.42N, Lon: 9.27E
ICAO Used: LIML
Condizioni Meteo Attuali Aggiornate: 04.07.2022 alle 19:20 UTC
Parz Nuvoloso
Parz Nuvoloso
Parz Nuvoloso
Temp: 23°C
Umidita': 74%
Direz/Vel. Vento: E 7 / KT raffiche
Pressione: 1014 hPa
Punto di rugiada: 18°C
Temperatura percepita: 23°C
Visibilitą: >10 KM (ottima)
Temperatura percepita in
presenza di vento (Wind Chill)
:
N/D
T. max (ultime 24 ore): 34°C
T. min (ultime 24 ore): 22°C


METAR ORIGINALE
LIML 041920Z 08007KT 030V110 9999 FEW040 23/18 Q1014 NOSIG



[ Indietro ]


Elaborazione dati by Datameteo.com - Lrc srl Copyright ©, All rights reserved.
Visualizza la versione web
©2010 Datameteo.com
weather mobile,mobile weather,meteo mobile,mobile meteo,meteo sul telefonino datameteo.com